Latest Weather Observations for Mardie

IDW60801

Issued at 10:33 am WST Tuesday 6 December 2016 (issued every 30 minutes, with the page automatically refreshed every 10 minutes)

About weather observations | Map of weather stations | Latest weather observations for WA | Other Formats
Station Details ID: 005008 Name: MARDIE Lat: -21.19 Lon: 115.98 Height: 11.0 m
Data from the previous 72 hours. | See also: Recent months at Mardie
Date/Time
WST
Temp
°C
App
Temp
°C
Dew
Point
°C
Rel
Hum
%
Delta-T
°C
Wind Press
QNH
hPa
Press
MSL
hPa
Rain since
9am
mm
Dir  Spd
km/h
Gust
km/h
Spd
kts
Gust
kts
06/10:30am 34.6 33.6 13.4 28 12.9 NE 11 24 6 13 1008.9 1008.9 0.0
06/10:00am 33.2 32.9 14.3 32 11.6 ENE 9 15 5 8 1009.0 1009.0 0.0
06/09:30am 32.2 31.7 14.8 35 10.7 NE 11 19 6 10 1009.2 1009.2 0.0
06/09:00am 30.0 30.3 14.9 39 9.2 ENE 7 13 4 7 1009.2 1009.2 0.0
06/08:30am 28.7 29.0 14.9 43 8.4 ENE 7 13 4 7 1009.4 1009.4 0.0
06/08:00am 27.6 28.6 15.3 47 7.5 SSW 4 7 2 4 1009.4 1009.4 0.0
06/07:30am 25.5 26.1 15.2 53 6.2 SW 6 9 3 5 1009.2 1009.2 0.0
06/07:00am 24.3 24.4 15.5 58 5.3 SW 9 13 5 7 1009.1 1009.1 0.0
06/06:30am 22.8 23.9 16.6 68 3.8 SW 6 7 3 4 1008.8 1008.8 0.0
06/06:00am 21.8 23.0 17.4 76 2.7 SW 7 9 4 5 1008.6 1008.6 0.0
06/05:30am 21.1 21.8 17.9 82 2.0 WSW 11 11 6 6 1008.5 1008.5 0.0
06/05:00am 21.1 22.4 18.5 85 1.6 WSW 9 9 5 5 1008.4 1008.4 0.0
06/04:30am 21.3 23.3 19.2 88 1.3 WSW 7 9 4 5 1008.2 1008.2 0.0
06/04:00am 21.7 24.5 20.5 93 0.8 WSW 6 7 3 4 1008.1 1008.1 0.0
06/03:30am 21.9 25.7 20.2 90 1.1 CALM 0 0 0 0 1008.2 1008.2 0.0
06/03:00am 22.6 26.7 20.7 89 1.2 CALM 0 0 0 0 1008.3 1008.3 0.0
06/02:30am 23.2 27.4 20.9 87 1.5 CALM 0 0 0 0 1008.2 1008.2 0.0
06/02:00am 23.6 27.9 21.1 86 1.6 CALM 0 0 0 0 1008.2 1008.2 0.0
06/01:30am 24.0 27.7 21.5 86 1.7 WSW 4 6 2 3 1008.2 1008.2 0.0
06/01:00am 24.5 28.0 21.8 85 1.8 WSW 6 7 3 4 1008.3 1008.3 0.0
06/12:30am 25.0 28.0 21.9 83 2.1 WSW 9 15 5 8 1008.2 1008.2 0.0
06/12:00am 25.2 28.5 22.5 85 1.8 W 9 11 5 6 1008.5 1008.5 0.0
 
Date/Time
WST
Temp
°C
App
Temp
°C
Dew
Point
°C
Rel
Hum
%
Delta-T
°C
Wind Press
QNH
hPa
Press
MSL
hPa
Rain since
9am
mm
Dir  Spd
km/h
Gust
km/h
Spd
kts
Gust
kts
05/11:30pm 25.5 28.6 22.8 85 1.8 W 11 17 6 9 1008.7 1008.7 0.0
05/11:00pm 25.6 27.7 22.5 83 2.1 W 15 22 8 12 1008.6 1008.6 0.0
05/10:30pm 24.3 27.9 22.4 89 1.3 NW 7 9 4 5 1009.0 1009.0 0.0
05/10:00pm 24.2 27.7 21.9 87 1.5 NNW 6 7 3 4 1008.9 1008.9 0.0
05/09:30pm 24.6 27.8 21.7 84 1.9 NNW 7 9 4 5 1008.5 1008.5 0.0
05/09:00pm 24.9 27.8 21.0 79 2.6 NNW 7 11 4 6 1008.4 1008.4 0.0
05/08:30pm 25.4 28.4 20.9 76 3.0 NW 6 7 3 4 1008.2 1008.2 0.0
05/08:00pm 26.0 28.3 20.6 72 3.5 NW 9 13 5 7 1007.9 1007.9 0.0
05/07:30pm 26.6 28.6 20.7 70 3.9 WNW 11 17 6 9 1007.5 1007.4 0.0
05/07:00pm 27.0 28.4 20.3 66 4.4 WNW 13 19 7 10 1007.3 1007.2 0.0
05/06:30pm 27.5 28.1 20.3 65 4.7 WNW 17 24 9 13 1006.8 1006.7 0.0
05/06:00pm 28.1 27.6 19.9 61 5.4 WNW 22 30 12 16 1006.4 1006.3 0.0
05/05:30pm 28.9 27.8 18.7 54 6.6 WNW 22 32 12 17 1006.3 1006.2 0.0
05/05:00pm 29.4 27.6 17.9 50 7.3 WNW 24 30 13 16 1006.2 1006.1 0.0
05/04:30pm 30.0 28.8 18.4 49 7.5 WNW 22 32 12 17 1005.9 1005.8 0.0
05/04:00pm 30.6 28.5 18.0 47 8.1 NW 26 32 14 17 1005.9 1005.8 0.0
05/03:30pm 31.4 29.2 16.9 41 9.2 WNW 24 37 13 20 1006.1 1006.0 0.0
05/03:00pm 31.4 29.1 16.6 41 9.3 WNW 24 30 13 16 1006.3 1006.2 0.0
05/02:30pm 31.8 30.2 16.5 39 9.6 WNW 20 30 11 16 1006.6 1006.5 0.0
05/02:00pm 31.6 29.4 16.0 39 9.8 NW 22 30 12 16 1006.7 1006.6 0.0
05/01:30pm 31.7 29.9 15.6 37 10.0 WNW 19 28 10 15 1006.7 1006.6 0.0
05/01:00pm 32.6 30.8 15.6 36 10.6 NW 19 26 10 14 1007.1 1007.0 0.0
05/12:30pm 32.1 30.5 16.0 38 10.1 NW 19 28 10 15 1007.3 1007.2 0.0
05/12:00pm 31.9 30.6 15.8 38 10.1 WNW 17 24 9 13 1007.7 1007.7 0.0
05/11:30am 32.1 30.5 15.1 35 10.5 WNW 17 24 9 13 1008.0 1008.0 0.0
05/11:00am 31.2 30.1 14.4 36 10.2 NW 13 22 7 12 1008.3 1008.3 0.0
05/10:30am 32.4 32.1 11.6 28 12.2 SW 4 11 2 6 1008.4 1008.4 0.0
05/10:00am 30.7 31.1 12.6 33 10.7 S 2 9 1 5 1008.6 1008.6 0.0
05/09:30am 29.5 29.9 13.7 38 9.5 ESE 4 11 2 6 1009.0 1009.0 0.0
05/09:00am 28.4 27.9 13.9 41 8.7 SW 9 17 5 9 1009.1 1009.1 0.0
05/08:30am 27.3 26.3 14.7 46 7.6 S 13 20 7 11 1009.0 1009.0 0.0
05/08:00am 25.4 24.8 14.5 51 6.5 SW 11 19 6 10 1009.0 1009.0 0.0
05/07:30am 24.4 24.0 15.3 57 5.5 SW 11 17 6 9 1008.8 1008.8 0.0
05/07:00am 23.6 23.0 15.6 61 4.8 SW 13 19 7 10 1008.7 1008.7 0.0
05/06:30am 21.9 23.0 16.6 72 3.2 W 6 9 3 5 1008.7 1008.7 0.0
05/06:00am 20.0 21.3 16.2 79 2.3 W 4 9 2 5 1008.5 1008.5 0.0
05/05:30am 19.3 20.1 15.8 80 2.1 WSW 6 9 3 5 1008.2 1008.2 0.0
05/05:00am 19.9 20.6 16.0 78 2.3 WSW 7 9 4 5 1008.0 1008.0 0.0
05/04:30am 20.1 20.4 15.9 77 2.5 W 9 11 5 6 1007.8 1007.8 0.0
05/04:00am 20.7 21.6 16.1 75 2.8 W 6 6 3 3 1007.9 1007.9 0.0
05/03:30am 21.3 22.1 16.3 73 3.0 WSW 7 11 4 6 1007.8 1007.8 0.0
05/03:00am 21.8 22.4 16.7 73 3.1 WSW 9 13 5 7 1007.7 1007.7 0.0
05/02:30am 22.4 22.6 16.7 70 3.5 WSW 11 15 6 8 1007.7 1007.7 0.0
05/02:00am 23.0 22.8 16.8 68 3.8 WSW 13 17 7 9 1007.5 1007.4 0.0
05/01:30am 23.5 23.2 17.3 68 3.8 WSW 15 20 8 11 1007.5 1007.4 0.0
05/01:00am 23.5 24.5 18.6 74 3.1 WSW 11 13 6 7 1007.7 1007.7 0.0
05/12:30am 24.1 26.2 20.2 79 2.5 WSW 9 13 5 7 1008.0 1008.0 0.0
05/12:00am 24.1 26.8 20.6 81 2.3 WSW 7 7 4 4 1008.1 1008.1 0.0
 
Date/Time
WST
Temp
°C
App
Temp
°C
Dew
Point
°C
Rel
Hum
%
Delta-T
°C
Wind Press
QNH
hPa
Press
MSL
hPa
Rain since
9am
mm
Dir  Spd
km/h
Gust
km/h
Spd
kts
Gust
kts
04/11:30pm 24.6 27.8 20.5 78 2.7 WSW 4 6 2 3 1008.2 1008.2 0.0
04/11:00pm 24.6 27.4 20.5 78 2.7 W 6 11 3 6 1008.3 1008.3 0.0
04/10:30pm 24.7 27.1 20.0 75 3.0 WNW 7 9 4 5 1008.5 1008.5 0.0
04/10:00pm 25.0 26.6 20.0 74 3.2 W 11 17 6 9 1008.4 1008.4 0.0
04/09:30pm 25.4 26.3 20.0 72 3.5 W 15 20 8 11 1008.3 1008.3 0.0
04/09:00pm 25.7 25.8 20.0 71 3.7 W 19 22 10 12 1008.0 1008.0 0.0
04/08:30pm 25.6 25.9 19.5 69 3.9 WNW 17 20 9 11 1008.1 1008.1 0.0
04/08:00pm 25.7 25.8 18.4 64 4.6 WNW 15 20 8 11 1007.9 1007.9 0.0
04/07:30pm 25.8 25.5 18.2 63 4.8 WNW 17 26 9 14 1007.7 1007.7 0.0
04/07:00pm 25.9 25.7 18.6 64 4.7 WNW 17 26 9 14 1007.5 1007.4 0.0
04/06:30pm 26.3 25.7 18.9 63 4.7 WNW 20 28 11 15 1007.4 1007.3 0.0
04/06:00pm 27.4 26.3 18.7 59 5.6 WNW 22 28 12 15 1007.1 1007.0 0.0
04/05:30pm 27.6 26.1 17.7 54 6.3 WNW 22 30 12 16 1006.7 1006.6 0.0
04/05:00pm 28.2 26.2 17.4 52 6.8 WNW 24 32 13 17 1006.6 1006.5 0.0
04/04:30pm 28.3 26.2 18.1 54 6.5 NW 26 35 14 19 1006.2 1006.1 0.0
04/04:00pm 28.8 25.8 16.7 48 7.6 WNW 28 35 15 19 1006.3 1006.2 0.0
04/03:30pm 29.4 27.3 17.2 47 7.7 NW 24 32 13 17 1006.5 1006.4 0.0
04/03:00pm 30.0 27.7 17.5 47 8.0 NW 26 35 14 19 1006.6 1006.5 0.0
04/02:30pm 30.3 27.6 15.6 41 9.1 WNW 24 33 13 18 1006.7 1006.6 0.0
04/02:00pm 30.4 27.8 14.9 39 9.5 NW 22 30 12 16 1006.8 1006.7 0.0
04/01:30pm 31.1 29.0 14.7 37 10.0 NW 19 28 10 15 1007.0 1006.9 0.0
04/01:00pm 30.1 27.8 14.2 38 9.6 NW 19 30 10 16 1007.3 1007.2 0.0
04/12:30pm 30.7 29.0 14.8 38 9.7 WNW 17 26 9 14 1007.5 1007.4 0.0
04/12:00pm 30.8 29.4 14.4 36 10.0 WNW 15 22 8 12 1007.6 1007.5 0.0
04/11:30am 30.2 28.2 13.9 37 9.8 WNW 17 24 9 13 1007.8 1007.8 0.0
04/11:00am 29.8 28.1 13.5 36 9.8 NW 15 20 8 11 1008.2 1008.2 0.0
04/10:30am 29.1 28.1 14.5 41 8.8 WNW 13 20 7 11 1008.1 1008.1 0.0
04/10:00am 29.2 28.1 14.2 40 9.0 WNW 13 19 7 10 1008.4 1008.4 0.0
04/09:30am 28.8 28.6 13.5 39 9.1 W 7 15 4 8 1008.5 1008.5 0.0
04/09:00am 27.2 27.2 13.5 42 8.1 WNW 6 13 3 7 1008.6 1008.6 0.0
04/08:30am 25.7 25.7 13.5 46 7.2 WSW 6 15 3 8 1008.8 1008.8 0.0
04/08:00am 24.6 24.2 14.1 52 6.2 WSW 9 17 5 9 1008.8 1008.8 0.0
04/07:30am 23.5 22.4 14.2 56 5.5 SW 13 17 7 9 1008.8 1008.8 0.0
04/07:00am 22.5 21.2 14.9 62 4.5 SW 15 20 8 11 1008.7 1008.7 0.0
04/06:30am 22.1 20.0 14.7 63 4.4 SW 19 24 10 13 1008.5 1008.5 0.0
04/06:00am 21.6 21.0 14.7 65 4.1 WSW 11 17 6 9 1008.5 1008.5 0.0
04/05:30am 21.3 20.0 14.7 66 3.9 SW 15 22 8 12 1008.3 1008.3 0.0
04/05:00am 21.5 20.3 15.1 67 3.8 WSW 15 20 8 11 1008.1 1008.1 0.0
04/04:30am 21.4 21.5 16.4 73 3.0 WSW 11 17 6 9 1007.8 1007.8 0.0
04/04:00am 21.4 21.9 16.6 74 2.9 WSW 9 13 5 7 1007.9 1007.9 0.0
04/03:30am 21.8 21.6 16.7 73 3.1 WSW 13 17 7 9 1007.7 1007.7 0.0
04/03:00am 22.1 21.6 16.8 72 3.2 WSW 15 20 8 11 1007.5 1007.4 0.0
04/02:30am 22.4 22.7 17.1 72 3.3 WSW 11 15 6 8 1007.6 1007.5 0.0
04/02:00am 22.8 23.2 17.3 71 3.4 WSW 11 15 6 8 1007.7 1007.7 0.0
04/01:30am 23.3 23.4 17.5 70 3.6 WSW 13 17 7 9 1007.8 1007.8 0.0
04/01:00am 23.7 25.0 18.4 72 3.3 WSW 9 13 5 7 1008.0 1008.0 0.0
04/12:30am 24.2 25.8 19.1 73 3.3 WSW 9 13 5 7 1008.1 1008.1 0.0
04/12:00am 24.8 26.0 19.8 74 3.2 WSW 13 19 7 10 1008.4 1008.4 0.0
 
Date/Time
WST
Temp
°C
App
Temp
°C
Dew
Point
°C
Rel
Hum
%
Delta-T
°C
Wind Press
QNH
hPa
Press
MSL
hPa
Rain since
9am
mm
Dir  Spd
km/h
Gust
km/h
Spd
kts
Gust
kts
03/11:30pm 24.9 28.0 22.2 85 1.8 WSW 9 13 5 7 1008.5 1008.5 0.0
03/11:00pm 25.3 27.6 22.0 82 2.2 W 13 17 7 9 1008.8 1008.8 0.0
03/10:30pm 25.6 27.6 21.5 78 2.7 W 13 19 7 10 1008.9 1008.9 0.0
03/10:00pm 25.5 27.9 21.6 79 2.6 W 11 15 6 8 1008.7 1008.7 0.0
03/09:30pm 25.7 27.6 21.4 77 2.9 W 13 20 7 11 1008.5 1008.5 0.0
03/09:00pm 25.8 27.0 21.5 77 2.9 W 17 22 9 12 1008.1 1008.1 0.0
03/08:30pm 25.8 28.0 21.9 79 2.6 W 13 20 7 11 1008.0 1008.0 0.0
03/08:00pm 25.9 26.7 21.3 76 3.1 WNW 19 24 10 13 1007.8 1007.8 0.0
03/07:30pm 26.0 27.0 21.0 74 3.3 WNW 17 20 9 11 1007.6 1007.5 0.0
03/07:00pm 26.3 26.9 20.2 69 4.0 WNW 17 24 9 13 1007.3 1007.2 0.0
03/06:30pm 27.0 27.1 19.9 65 4.6 WNW 19 28 10 15 1007.1 1007.0 0.0
03/06:00pm 27.8 25.9 17.6 53 6.5 WNW 24 33 13 18 1006.9 1006.8 0.0
03/05:30pm 28.6 27.2 18.7 55 6.4 WNW 24 32 13 17 1006.6 1006.5 0.0
03/05:00pm 29.7 28.4 19.1 53 6.9 WNW 24 32 13 17 1006.3 1006.2 0.0
03/04:30pm 29.4 27.5 18.5 52 7.0 WNW 26 35 14 19 1006.1 1006.0 0.0
03/04:00pm 30.2 28.3 17.6 46 8.0 WNW 24 32 13 17 1005.9 1005.8 0.0
03/03:30pm 31.1 28.7 17.4 44 8.7 WNW 26 32 14 17 1006.0 1005.9 0.0
03/03:00pm 31.2 29.2 16.4 41 9.3 WNW 22 32 12 17 1006.2 1006.1 0.0
03/02:30pm 31.9 29.3 15.8 38 10.0 WNW 24 32 13 17 1006.2 1006.1 0.0
03/02:00pm 32.1 29.4 15.6 37 10.3 WNW 24 32 13 17 1006.4 1006.3 0.0
03/01:30pm 31.4 29.3 16.2 40 9.5 WNW 22 32 12 17 1006.7 1006.6 0.0
03/01:00pm 31.0 29.3 18.0 45 8.4 WNW 24 33 13 18 1006.9 1006.8 0.0
03/12:30pm 31.0 29.5 17.7 45 8.5 WNW 22 30 12 16 1007.2 1007.1 0.0
03/12:00pm 31.6 30.4 17.5 43 9.0 WNW 20 28 11 15 1007.2 1007.1 0.0
03/11:30am 30.9 29.6 16.9 43 8.8 WNW 19 24 10 13 1007.0 1006.9 0.0
03/11:00am 30.7 29.8 18.1 47 8.1 WNW 20 28 11 15 1007.4 1007.3 0.0

Other Formats:

Comma delimited format used in spreadsheet applications
http://www.bom.gov.au/fwo/IDW60801/IDW60801.94306.axf

JavaScript Object Notation format (JSON) in row-major order
http://www.bom.gov.au/fwo/IDW60801/IDW60801.94306.json